sensor_id;sensor_type;location;lat;lon;timestamp;pressure;altitude;pressure_sealevel;temperature;humidity
6427;BME280;3246;42.664;23.308;2023-08-17T00:00:52;120715.88;;;-142.62;62.44
6427;BME280;3246;42.664;23.308;2023-08-17T00:03:19;120715.88;;;-142.62;62.48
6427;BME280;3246;42.664;23.308;2023-08-17T00:05:46;120715.88;;;-142.62;62.67
6427;BME280;3246;42.664;23.308;2023-08-17T00:08:13;120715.88;;;-142.62;62.53
6427;BME280;3246;42.664;23.308;2023-08-17T00:10:40;120715.88;;;-142.62;62.82
6427;BME280;3246;42.664;23.308;2023-08-17T00:13:06;120715.88;;;-142.62;62.77
6427;BME280;3246;42.664;23.308;2023-08-17T00:15:35;120715.88;;;-142.62;63.17
6427;BME280;3246;42.664;23.308;2023-08-17T00:18:02;120715.88;;;-142.62;63.14
6427;BME280;3246;42.664;23.308;2023-08-17T00:20:28;120715.88;;;-142.62;62.90
6427;BME280;3246;42.664;23.308;2023-08-17T00:22:55;120715.88;;;-142.62;63.01
6427;BME280;3246;42.664;23.308;2023-08-17T00:25:22;120715.88;;;-142.62;62.81
6427;BME280;3246;42.664;23.308;2023-08-17T00:27:49;120715.88;;;-142.62;62.82
6427;BME280;3246;42.664;23.308;2023-08-17T00:30:16;120715.88;;;-142.62;62.22
6427;BME280;3246;42.664;23.308;2023-08-17T00:32:44;120715.88;;;-142.62;62.08
6427;BME280;3246;42.664;23.308;2023-08-17T00:35:11;120715.88;;;-142.62;61.91
6427;BME280;3246;42.664;23.308;2023-08-17T00:37:37;120715.88;;;-142.62;61.72
6427;BME280;3246;42.664;23.308;2023-08-17T00:40:05;120715.88;;;-142.62;61.52
6427;BME280;3246;42.664;23.308;2023-08-17T00:42:32;120715.88;;;-142.62;60.60
6427;BME280;3246;42.664;23.308;2023-08-17T00:44:59;120715.88;;;-142.62;60.67
6427;BME280;3246;42.664;23.308;2023-08-17T00:47:26;120715.88;;;-142.62;60.79
6427;BME280;3246;42.664;23.308;2023-08-17T00:49:55;120715.88;;;-142.62;60.34
6427;BME280;3246;42.664;23.308;2023-08-17T00:52:23;120715.88;;;-142.62;60.08
6427;BME280;3246;42.664;23.308;2023-08-17T00:54:50;120715.88;;;-142.62;60.06
6427;BME280;3246;42.664;23.308;2023-08-17T00:57:17;120715.88;;;-142.62;59.83
6427;BME280;3246;42.664;23.308;2023-08-17T00:59:46;120715.88;;;-142.62;59.00
6427;BME280;3246;42.664;23.308;2023-08-17T01:02:12;120715.88;;;-142.62;58.53
6427;BME280;3246;42.664;23.308;2023-08-17T01:04:40;120715.88;;;-142.62;58.53
6427;BME280;3246;42.664;23.308;2023-08-17T01:07:08;120715.88;;;-142.62;58.30
6427;BME280;3246;42.664;23.308;2023-08-17T01:09:35;120715.88;;;-142.62;57.68
6427;BME280;3246;42.664;23.308;2023-08-17T01:12:07;120715.88;;;-142.62;57.50
6427;BME280;3246;42.664;23.308;2023-08-17T01:14:45;120715.88;;;-142.62;57.31
6427;BME280;3246;42.664;23.308;2023-08-17T01:17:19;120715.88;;;-142.62;56.66
6427;BME280;3246;42.664;23.308;2023-08-17T01:19:47;120715.88;;;-142.62;57.04
6427;BME280;3246;42.664;23.308;2023-08-17T01:22:21;120715.88;;;-142.62;56.54
6427;BME280;3246;42.664;23.308;2023-08-17T01:24:49;120715.88;;;-142.62;56.73
6427;BME280;3246;42.664;23.308;2023-08-17T01:27:22;120715.88;;;-142.62;56.63
6427;BME280;3246;42.664;23.308;2023-08-17T01:29:49;120715.88;;;-142.62;56.65
6427;BME280;3246;42.664;23.308;2023-08-17T01:32:23;120715.88;;;-142.62;57.12
6427;BME280;3246;42.664;23.308;2023-08-17T01:34:57;120715.88;;;-142.62;56.52
6427;BME280;3246;42.664;23.308;2023-08-17T01:37:27;120715.88;;;-142.62;57.22
6427;BME280;3246;42.664;23.308;2023-08-17T01:39:57;120715.88;;;-142.62;57.04
6427;BME280;3246;42.664;23.308;2023-08-17T01:42:25;120715.88;;;-142.62;57.08
6427;BME280;3246;42.664;23.308;2023-08-17T01:44:52;120715.88;;;-142.62;57.61
6427;BME280;3246;42.664;23.308;2023-08-17T01:47:20;120715.88;;;-142.62;57.48
6427;BME280;3246;42.664;23.308;2023-08-17T01:49:47;120715.88;;;-142.62;57.75
6427;BME280;3246;42.664;23.308;2023-08-17T01:52:14;120715.88;;;-142.62;57.81
6427;BME280;3246;42.664;23.308;2023-08-17T01:54:41;120715.88;;;-142.62;57.76
6427;BME280;3246;42.664;23.308;2023-08-17T01:57:09;120715.88;;;-142.62;57.73
6427;BME280;3246;42.664;23.308;2023-08-17T01:59:36;120715.88;;;-142.62;57.93
6427;BME280;3246;42.664;23.308;2023-08-17T02:02:03;120715.88;;;-142.62;57.79
6427;BME280;3246;42.664;23.308;2023-08-17T02:04:30;120715.88;;;-142.62;57.84
6427;BME280;3246;42.664;23.308;2023-08-17T02:06:57;120715.88;;;-142.62;58.06
6427;BME280;3246;42.664;23.308;2023-08-17T02:09:23;120715.88;;;-142.62;57.64
6427;BME280;3246;42.664;23.308;2023-08-17T02:11:50;120715.88;;;-142.62;57.54
6427;BME280;3246;42.664;23.308;2023-08-17T02:14:18;120715.88;;;-142.62;57.19
6427;BME280;3246;42.664;23.308;2023-08-17T02:16:45;120715.88;;;-142.62;56.96
6427;BME280;3246;42.664;23.308;2023-08-17T02:19:12;120715.88;;;-142.62;57.05
6427;BME280;3246;42.664;23.308;2023-08-17T02:21:38;120715.88;;;-142.62;57.18
6427;BME280;3246;42.664;23.308;2023-08-17T02:24:06;120715.88;;;-142.62;57.42
6427;BME280;3246;42.664;23.308;2023-08-17T02:26:33;120715.88;;;-142.62;57.02
6427;BME280;3246;42.664;23.308;2023-08-17T02:28:59;120715.88;;;-142.62;56.79
6427;BME280;3246;42.664;23.308;2023-08-17T02:31:27;120715.88;;;-142.62;56.89
6427;BME280;3246;42.664;23.308;2023-08-17T02:33:54;120715.88;;;-142.62;57.23
6427;BME280;3246;42.664;23.308;2023-08-17T02:36:25;120715.88;;;-142.62;57.20
6427;BME280;3246;42.664;23.308;2023-08-17T02:38:52;120715.88;;;-142.62;57.00
6427;BME280;3246;42.664;23.308;2023-08-17T02:41:19;120715.88;;;-142.62;57.47
6427;BME280;3246;42.664;23.308;2023-08-17T02:43:46;120715.88;;;-142.62;57.17
6427;BME280;3246;42.664;23.308;2023-08-17T02:46:13;120715.88;;;-142.62;56.81
6427;BME280;3246;42.664;23.308;2023-08-17T02:48:42;120715.88;;;-142.62;56.59
6427;BME280;3246;42.664;23.308;2023-08-17T02:51:08;120715.88;;;-142.62;56.89
6427;BME280;3246;42.664;23.308;2023-08-17T02:53:35;120715.88;;;-142.62;56.92
6427;BME280;3246;42.664;23.308;2023-08-17T02:56:02;120715.88;;;-142.62;57.00
6427;BME280;3246;42.664;23.308;2023-08-17T02:58:29;120715.88;;;-142.62;56.95
6427;BME280;3246;42.664;23.308;2023-08-17T03:00:56;120715.88;;;-142.62;56.81
6427;BME280;3246;42.664;23.308;2023-08-17T03:03:22;120715.88;;;-142.62;57.08
6427;BME280;3246;42.664;23.308;2023-08-17T03:05:51;120715.88;;;-142.62;57.17
6427;BME280;3246;42.664;23.308;2023-08-17T03:08:17;120715.88;;;-142.62;57.01
6427;BME280;3246;42.664;23.308;2023-08-17T03:10:44;120715.88;;;-142.62;56.59
6427;BME280;3246;42.664;23.308;2023-08-17T03:13:11;120715.88;;;-142.62;56.64
6427;BME280;3246;42.664;23.308;2023-08-17T03:15:38;120715.88;;;-142.62;56.60
6427;BME280;3246;42.664;23.308;2023-08-17T03:18:05;120715.88;;;-142.62;56.38
6427;BME280;3246;42.664;23.308;2023-08-17T03:20:32;120715.88;;;-142.62;56.64
6427;BME280;3246;42.664;23.308;2023-08-17T03:23:00;120715.88;;;-142.62;56.54
6427;BME280;3246;42.664;23.308;2023-08-17T03:25:27;120715.88;;;-142.62;56.57
6427;BME280;3246;42.664;23.308;2023-08-17T03:27:54;120715.88;;;-142.62;56.40
6427;BME280;3246;42.664;23.308;2023-08-17T03:30:20;120715.88;;;-142.62;56.55
6427;BME280;3246;42.664;23.308;2023-08-17T03:32:47;120715.88;;;-142.62;56.86
6427;BME280;3246;42.664;23.308;2023-08-17T03:35:14;120715.88;;;-142.62;56.75
6427;BME280;3246;42.664;23.308;2023-08-17T03:37:41;120715.88;;;-142.62;56.73
6427;BME280;3246;42.664;23.308;2023-08-17T03:40:09;120715.88;;;-142.62;56.76
6427;BME280;3246;42.664;23.308;2023-08-17T03:42:36;120715.88;;;-142.62;56.56
6427;BME280;3246;42.664;23.308;2023-08-17T03:45:04;120715.88;;;-142.62;56.65
6427;BME280;3246;42.664;23.308;2023-08-17T03:47:31;120715.88;;;-142.62;56.86
6427;BME280;3246;42.664;23.308;2023-08-17T03:49:58;120715.88;;;-142.62;56.73
6427;BME280;3246;42.664;23.308;2023-08-17T03:52:24;120715.88;;;-142.62;56.43
6427;BME280;3246;42.664;23.308;2023-08-17T03:54:51;120715.88;;;-142.62;56.39
6427;BME280;3246;42.664;23.308;2023-08-17T03:57:19;120715.88;;;-142.62;55.64
6427;BME280;3246;42.664;23.308;2023-08-17T03:59:46;120715.88;;;-142.62;55.98
6427;BME280;3246;42.664;23.308;2023-08-17T04:02:13;120715.88;;;-142.62;56.19
6427;BME280;3246;42.664;23.308;2023-08-17T04:04:40;120715.88;;;-142.62;55.73
6427;BME280;3246;42.664;23.308;2023-08-17T04:07:06;120715.88;;;-142.62;55.85
6427;BME280;3246;42.664;23.308;2023-08-17T04:09:33;120715.88;;;-142.62;55.45
6427;BME280;3246;42.664;23.308;2023-08-17T04:12:01;120715.88;;;-142.62;55.42
6427;BME280;3246;42.664;23.308;2023-08-17T04:14:31;120715.88;;;-142.62;55.21
6427;BME280;3246;42.664;23.308;2023-08-17T04:16:58;120715.88;;;-142.62;55.10
6427;BME280;3246;42.664;23.308;2023-08-17T04:19:25;120715.88;;;-142.62;54.92
6427;BME280;3246;42.664;23.308;2023-08-17T04:21:52;120715.88;;;-142.62;55.13
6427;BME280;3246;42.664;23.308;2023-08-17T04:24:18;120715.88;;;-142.62;55.12
6427;BME280;3246;42.664;23.308;2023-08-17T04:26:45;120715.88;;;-142.62;54.71
6427;BME280;3246;42.664;23.308;2023-08-17T04:29:12;120715.88;;;-142.62;54.70
6427;BME280;3246;42.664;23.308;2023-08-17T04:31:41;120715.88;;;-142.62;54.62
6427;BME280;3246;42.664;23.308;2023-08-17T04:34:08;120715.88;;;-142.62;54.56
6427;BME280;3246;42.664;23.308;2023-08-17T04:36:34;120715.88;;;-142.62;54.34
6427;BME280;3246;42.664;23.308;2023-08-17T04:39:01;120715.88;;;-142.62;54.32
6427;BME280;3246;42.664;23.308;2023-08-17T04:41:29;120715.88;;;-142.62;54.60
6427;BME280;3246;42.664;23.308;2023-08-17T04:43:56;120715.88;;;-142.62;55.45
6427;BME280;3246;42.664;23.308;2023-08-17T04:46:23;120715.88;;;-142.62;56.54
6427;BME280;3246;42.664;23.308;2023-08-17T04:48:51;120715.88;;;-142.62;57.05
6427;BME280;3246;42.664;23.308;2023-08-17T04:51:19;120715.88;;;-142.62;57.70
6427;BME280;3246;42.664;23.308;2023-08-17T04:53:46;120715.88;;;-142.62;57.89
6427;BME280;3246;42.664;23.308;2023-08-17T04:56:12;120715.88;;;-142.62;58.04
6427;BME280;3246;42.664;23.308;2023-08-17T04:58:39;120715.88;;;-142.62;58.41
6427;BME280;3246;42.664;23.308;2023-08-17T05:01:06;120715.88;;;-142.62;58.42
6427;BME280;3246;42.664;23.308;2023-08-17T05:03:33;120715.88;;;-142.62;58.01
6427;BME280;3246;42.664;23.308;2023-08-17T05:06:01;120715.88;;;-142.62;57.97
6427;BME280;3246;42.664;23.308;2023-08-17T05:08:28;120715.88;;;-142.62;57.87
6427;BME280;3246;42.664;23.308;2023-08-17T05:10:55;120715.88;;;-142.62;57.36
6427;BME280;3246;42.664;23.308;2023-08-17T05:13:22;120715.88;;;-142.62;57.31
6427;BME280;3246;42.664;23.308;2023-08-17T05:15:49;120715.88;;;-142.62;56.76
6427;BME280;3246;42.664;23.308;2023-08-17T05:18:15;120715.88;;;-142.62;56.80
6427;BME280;3246;42.664;23.308;2023-08-17T05:20:42;120715.88;;;-142.62;56.79
6427;BME280;3246;42.664;23.308;2023-08-17T05:23:10;120715.88;;;-142.62;57.35
6427;BME280;3246;42.664;23.308;2023-08-17T05:25:37;120715.88;;;-142.62;56.03
6427;BME280;3246;42.664;23.308;2023-08-17T05:28:05;120715.88;;;-142.62;56.22
6427;BME280;3246;42.664;23.308;2023-08-17T05:30:32;120715.88;;;-142.62;55.68
6427;BME280;3246;42.664;23.308;2023-08-17T05:32:59;120715.88;;;-142.62;55.75
6427;BME280;3246;42.664;23.308;2023-08-17T05:35:26;120715.88;;;-142.62;55.53
6427;BME280;3246;42.664;23.308;2023-08-17T05:37:52;120715.88;;;-142.62;55.43
6427;BME280;3246;42.664;23.308;2023-08-17T05:40:21;120715.88;;;-142.62;55.02
6427;BME280;3246;42.664;23.308;2023-08-17T05:42:47;120715.88;;;-142.62;54.79
6427;BME280;3246;42.664;23.308;2023-08-17T05:45:14;120715.88;;;-142.62;54.32
6427;BME280;3246;42.664;23.308;2023-08-17T05:47:41;120715.88;;;-142.62;54.22
6427;BME280;3246;42.664;23.308;2023-08-17T05:50:08;120715.88;;;-142.62;53.42
6427;BME280;3246;42.664;23.308;2023-08-17T05:52:35;120715.88;;;-142.62;52.77
6427;BME280;3246;42.664;23.308;2023-08-17T05:55:02;120715.88;;;-142.62;52.93
6427;BME280;3246;42.664;23.308;2023-08-17T05:57:30;120715.88;;;-142.62;52.91
6427;BME280;3246;42.664;23.308;2023-08-17T05:59:57;120715.88;;;-142.62;52.74
6427;BME280;3246;42.664;23.308;2023-08-17T06:02:24;120715.88;;;-142.62;52.60
6427;BME280;3246;42.664;23.308;2023-08-17T06:04:51;120715.88;;;-142.62;52.11
6427;BME280;3246;42.664;23.308;2023-08-17T06:07:19;120715.88;;;-142.62;52.31
6427;BME280;3246;42.664;23.308;2023-08-17T06:09:46;120715.88;;;-142.62;52.88
6427;BME280;3246;42.664;23.308;2023-08-17T06:12:13;120715.88;;;-142.62;54.35
6427;BME280;3246;42.664;23.308;2023-08-17T06:14:41;120715.88;;;-142.62;55.55
6427;BME280;3246;42.664;23.308;2023-08-17T06:17:08;120715.88;;;-142.62;55.90
6427;BME280;3246;42.664;23.308;2023-08-17T06:19:35;120715.88;;;-142.62;55.80
6427;BME280;3246;42.664;23.308;2023-08-17T06:22:02;120715.88;;;-142.62;56.31
6427;BME280;3246;42.664;23.308;2023-08-17T06:24:28;120715.88;;;-142.62;56.30
6427;BME280;3246;42.664;23.308;2023-08-17T06:26:55;120715.88;;;-142.62;55.82
6427;BME280;3246;42.664;23.308;2023-08-17T06:29:22;120715.88;;;-142.62;56.36
6427;BME280;3246;42.664;23.308;2023-08-17T06:31:50;120715.88;;;-142.62;56.42
6427;BME280;3246;42.664;23.308;2023-08-17T06:34:17;120715.88;;;-142.62;56.49
6427;BME280;3246;42.664;23.308;2023-08-17T06:36:56;120715.88;;;-142.62;56.71
6427;BME280;3246;42.664;23.308;2023-08-17T06:39:24;120715.88;;;-142.62;56.91
6427;BME280;3246;42.664;23.308;2023-08-17T06:41:50;120715.88;;;-142.62;57.10
6427;BME280;3246;42.664;23.308;2023-08-17T06:44:17;120715.88;;;-142.62;56.52
6427;BME280;3246;42.664;23.308;2023-08-17T06:46:44;120715.88;;;-142.62;56.06
6427;BME280;3246;42.664;23.308;2023-08-17T06:49:12;120715.88;;;-142.62;55.76
6427;BME280;3246;42.664;23.308;2023-08-17T06:51:39;120715.88;;;-142.62;55.78
6427;BME280;3246;42.664;23.308;2023-08-17T06:54:07;120715.88;;;-142.62;54.86
6427;BME280;3246;42.664;23.308;2023-08-17T06:56:34;120715.88;;;-142.62;54.77
6427;BME280;3246;42.664;23.308;2023-08-17T06:59:01;120715.88;;;-142.62;54.21
6427;BME280;3246;42.664;23.308;2023-08-17T07:01:29;120715.88;;;-142.62;53.03
6427;BME280;3246;42.664;23.308;2023-08-17T07:03:56;120715.88;;;-142.62;52.74
6427;BME280;3246;42.664;23.308;2023-08-17T07:06:24;120715.88;;;-142.62;52.25
6427;BME280;3246;42.664;23.308;2023-08-17T07:08:51;120715.88;;;-142.62;52.44
6427;BME280;3246;42.664;23.308;2023-08-17T07:11:19;120715.88;;;-142.62;51.48
6427;BME280;3246;42.664;23.308;2023-08-17T07:13:46;120715.88;;;-142.62;50.77
6427;BME280;3246;42.664;23.308;2023-08-17T07:16:13;120715.88;;;-142.62;48.85
6427;BME280;3246;42.664;23.308;2023-08-17T07:18:39;120715.88;;;-142.62;49.03
6427;BME280;3246;42.664;23.308;2023-08-17T07:21:06;120715.88;;;-142.62;48.62
6427;BME280;3246;42.664;23.308;2023-08-17T07:23:34;120715.88;;;-142.62;47.97
6427;BME280;3246;42.664;23.308;2023-08-17T07:26:01;120715.88;;;-142.62;47.11
6427;BME280;3246;42.664;23.308;2023-08-17T07:28:28;120715.88;;;-142.62;46.46
6427;BME280;3246;42.664;23.308;2023-08-17T07:30:55;120715.88;;;-142.62;46.09
6427;BME280;3246;42.664;23.308;2023-08-17T07:33:22;120715.88;;;-142.62;45.46
6427;BME280;3246;42.664;23.308;2023-08-17T07:35:48;120715.88;;;-142.62;43.37
6427;BME280;3246;42.664;23.308;2023-08-17T07:38:15;120715.88;;;-142.62;42.67
6427;BME280;3246;42.664;23.308;2023-08-17T07:40:43;120715.88;;;-142.62;43.15
6427;BME280;3246;42.664;23.308;2023-08-17T07:43:10;120715.88;;;-142.62;43.37
6427;BME280;3246;42.664;23.308;2023-08-17T07:45:37;120715.88;;;-142.62;43.48
6427;BME280;3246;42.664;23.308;2023-08-17T07:48:04;120715.88;;;-142.62;43.18
6427;BME280;3246;42.664;23.308;2023-08-17T07:50:31;120715.88;;;-142.62;43.86
6427;BME280;3246;42.664;23.308;2023-08-17T07:52:58;120715.88;;;-142.62;44.36
6427;BME280;3246;42.664;23.308;2023-08-17T07:55:25;120715.88;;;-142.62;43.74
6427;BME280;3246;42.664;23.308;2023-08-17T07:57:54;120715.88;;;-142.62;43.29
6427;BME280;3246;42.664;23.308;2023-08-17T08:00:21;120715.88;;;-142.62;43.10
6427;BME280;3246;42.664;23.308;2023-08-17T08:02:47;120715.88;;;-142.62;42.99
6427;BME280;3246;42.664;23.308;2023-08-17T08:05:14;120715.88;;;-142.62;42.47
6427;BME280;3246;42.664;23.308;2023-08-17T08:07:41;120715.88;;;-142.62;42.50
6427;BME280;3246;42.664;23.308;2023-08-17T08:10:08;120715.88;;;-142.62;42.02
6427;BME280;3246;42.664;23.308;2023-08-17T08:12:35;120715.88;;;-142.62;41.98
6427;BME280;3246;42.664;23.308;2023-08-17T08:15:07;120715.88;;;-142.62;42.67
6427;BME280;3246;42.664;23.308;2023-08-17T08:17:34;120715.88;;;-142.62;42.33
6427;BME280;3246;42.664;23.308;2023-08-17T08:20:01;120715.88;;;-142.62;42.11
6427;BME280;3246;42.664;23.308;2023-08-17T08:22:28;120715.88;;;-142.62;42.19
6427;BME280;3246;42.664;23.308;2023-08-17T08:24:55;120715.88;;;-142.62;42.33
6427;BME280;3246;42.664;23.308;2023-08-17T08:27:21;120715.88;;;-142.62;42.25
6427;BME280;3246;42.664;23.308;2023-08-17T08:29:48;120715.88;;;-142.62;41.58
6427;BME280;3246;42.664;23.308;2023-08-17T08:32:17;120715.88;;;-142.62;41.59
6427;BME280;3246;42.664;23.308;2023-08-17T08:34:43;120715.88;;;-142.62;41.63
6427;BME280;3246;42.664;23.308;2023-08-17T08:37:10;120715.88;;;-142.62;41.83
6427;BME280;3246;42.664;23.308;2023-08-17T08:39:48;120715.88;;;-142.62;42.21
6427;BME280;3246;42.664;23.308;2023-08-17T08:42:16;120715.88;;;-142.62;41.84
6427;BME280;3246;42.664;23.308;2023-08-17T08:44:43;120715.88;;;-142.62;42.19
6427;BME280;3246;42.664;23.308;2023-08-17T08:47:11;120715.88;;;-142.62;41.87
6427;BME280;3246;42.664;23.308;2023-08-17T08:49:40;120715.88;;;-142.62;41.77
6427;BME280;3246;42.664;23.308;2023-08-17T08:52:14;120715.88;;;-142.62;41.77
6427;BME280;3246;42.664;23.308;2023-08-17T08:54:49;120715.88;;;-142.62;41.70
6427;BME280;3246;42.664;23.308;2023-08-17T08:57:17;120715.88;;;-142.62;41.83
6427;BME280;3246;42.664;23.308;2023-08-17T08:59:45;120715.88;;;-142.62;41.39
6427;BME280;3246;42.664;23.308;2023-08-17T09:02:14;120715.88;;;-142.62;41.54
6427;BME280;3246;42.664;23.308;2023-08-17T09:04:43;120715.88;;;-142.62;41.47
6427;BME280;3246;42.664;23.308;2023-08-17T09:07:11;120715.88;;;-142.62;40.91
6427;BME280;3246;42.664;23.308;2023-08-17T09:09:39;120715.88;;;-142.62;40.99
6427;BME280;3246;42.664;23.308;2023-08-17T09:12:07;120715.88;;;-142.62;40.87
6427;BME280;3246;42.664;23.308;2023-08-17T09:14:35;120715.88;;;-142.62;41.10
6427;BME280;3246;42.664;23.308;2023-08-17T09:17:03;120715.88;;;-142.62;41.06
6427;BME280;3246;42.664;23.308;2023-08-17T09:19:31;120715.88;;;-142.62;40.95
6427;BME280;3246;42.664;23.308;2023-08-17T09:22:00;120715.88;;;-142.62;40.99
6427;BME280;3246;42.664;23.308;2023-08-17T09:24:33;120715.88;;;-142.62;40.43
6427;BME280;3246;42.664;23.308;2023-08-17T09:27:01;120715.88;;;-142.62;40.91
6427;BME280;3246;42.664;23.308;2023-08-17T09:29:28;120715.88;;;-142.62;40.14
6427;BME280;3246;42.664;23.308;2023-08-17T09:31:57;120715.88;;;-142.62;40.21
6427;BME280;3246;42.664;23.308;2023-08-17T09:34:24;120715.88;;;-142.62;40.25
6427;BME280;3246;42.664;23.308;2023-08-17T09:36:51;120715.88;;;-142.62;39.27
6427;BME280;3246;42.664;23.308;2023-08-17T09:39:19;120715.88;;;-142.62;39.98
6427;BME280;3246;42.664;23.308;2023-08-17T09:41:46;120715.88;;;-142.62;40.19
6427;BME280;3246;42.664;23.308;2023-08-17T09:44:13;120715.88;;;-142.62;39.07
6427;BME280;3246;42.664;23.308;2023-08-17T09:46:42;120715.88;;;-142.62;39.60
6427;BME280;3246;42.664;23.308;2023-08-17T09:49:10;120715.88;;;-142.62;38.80
6427;BME280;3246;42.664;23.308;2023-08-17T09:51:37;120715.88;;;-142.62;38.28
6427;BME280;3246;42.664;23.308;2023-08-17T09:54:04;120715.88;;;-142.62;38.60
6427;BME280;3246;42.664;23.308;2023-08-17T09:56:32;120715.88;;;-142.62;38.40
6427;BME280;3246;42.664;23.308;2023-08-17T09:59:00;120715.88;;;-142.62;38.96
6427;BME280;3246;42.664;23.308;2023-08-17T10:01:29;120715.88;;;-142.62;38.11
6427;BME280;3246;42.664;23.308;2023-08-17T10:03:56;120715.88;;;-142.62;37.85
6427;BME280;3246;42.664;23.308;2023-08-17T10:06:25;120715.88;;;-142.62;37.68
6427;BME280;3246;42.664;23.308;2023-08-17T10:08:54;120715.88;;;-142.62;37.30
6427;BME280;3246;42.664;23.308;2023-08-17T10:11:23;120715.88;;;-142.62;36.70
6427;BME280;3246;42.664;23.308;2023-08-17T10:13:56;120715.88;;;-142.62;36.44
6427;BME280;3246;42.664;23.308;2023-08-17T10:16:31;120715.88;;;-142.62;36.37
6427;BME280;3246;42.664;23.308;2023-08-17T10:19:05;120715.88;;;-142.62;35.89
6427;BME280;3246;42.664;23.308;2023-08-17T10:21:37;120715.88;;;-142.62;36.56
6427;BME280;3246;42.664;23.308;2023-08-17T10:24:05;120715.88;;;-142.62;35.93
6427;BME280;3246;42.664;23.308;2023-08-17T10:26:33;120715.88;;;-142.62;35.73
6427;BME280;3246;42.664;23.308;2023-08-17T10:29:02;120715.88;;;-142.62;35.25
6427;BME280;3246;42.664;23.308;2023-08-17T10:31:30;120715.88;;;-142.62;35.44
6427;BME280;3246;42.664;23.308;2023-08-17T10:33:57;120715.88;;;-142.62;35.33
6427;BME280;3246;42.664;23.308;2023-08-17T10:36:24;120715.88;;;-142.62;35.53
6427;BME280;3246;42.664;23.308;2023-08-17T10:39:19;120715.88;;;-142.62;35.25
6427;BME280;3246;42.664;23.308;2023-08-17T10:41:47;120715.88;;;-142.62;35.76
6427;BME280;3246;42.664;23.308;2023-08-17T10:44:16;120715.88;;;-142.62;36.00
6427;BME280;3246;42.664;23.308;2023-08-17T10:46:44;120715.88;;;-142.62;36.00
6427;BME280;3246;42.664;23.308;2023-08-17T10:49:25;120715.88;;;-142.62;36.07
6427;BME280;3246;42.664;23.308;2023-08-17T10:52:03;120715.88;;;-142.62;35.14
6427;BME280;3246;42.664;23.308;2023-08-17T10:54:37;120715.88;;;-142.62;34.77
6427;BME280;3246;42.664;23.308;2023-08-17T10:57:33;120715.88;;;-142.62;34.90
6427;BME280;3246;42.664;23.308;2023-08-17T11:00:22;120715.88;;;-142.62;35.10
6427;BME280;3246;42.664;23.308;2023-08-17T11:02:55;120715.88;;;-142.62;35.07
6427;BME280;3246;42.664;23.308;2023-08-17T11:05:37;120715.88;;;-142.62;35.73
6427;BME280;3246;42.664;23.308;2023-08-17T11:08:05;120715.88;;;-142.62;36.01
6427;BME280;3246;42.664;23.308;2023-08-17T11:10:32;120715.88;;;-142.62;36.42
6427;BME280;3246;42.664;23.308;2023-08-17T11:13:00;120715.88;;;-142.62;36.07
6427;BME280;3246;42.664;23.308;2023-08-17T11:15:36;120715.88;;;-142.62;36.48
6427;BME280;3246;42.664;23.308;2023-08-17T11:18:05;120715.88;;;-142.62;36.41
6427;BME280;3246;42.664;23.308;2023-08-17T11:20:33;120715.88;;;-142.62;35.37
6427;BME280;3246;42.664;23.308;2023-08-17T11:23:00;120715.88;;;-142.62;35.78
6427;BME280;3246;42.664;23.308;2023-08-17T11:25:27;120715.88;;;-142.62;35.51
6427;BME280;3246;42.664;23.308;2023-08-17T11:27:55;120715.88;;;-142.62;35.36
6427;BME280;3246;42.664;23.308;2023-08-17T11:30:22;120715.88;;;-142.62;35.48
6427;BME280;3246;42.664;23.308;2023-08-17T11:32:52;120715.88;;;-142.62;36.45
6427;BME280;3246;42.664;23.308;2023-08-17T11:35:19;120715.88;;;-142.62;36.44
6427;BME280;3246;42.664;23.308;2023-08-17T11:37:47;120715.88;;;-142.62;36.45
6427;BME280;3246;42.664;23.308;2023-08-17T11:40:15;120715.88;;;-142.62;35.94
6427;BME280;3246;42.664;23.308;2023-08-17T11:42:42;120715.88;;;-142.62;36.00
6427;BME280;3246;42.664;23.308;2023-08-17T11:45:09;120715.88;;;-142.62;36.19
6427;BME280;3246;42.664;23.308;2023-08-17T11:47:37;120715.88;;;-142.62;36.26
6427;BME280;3246;42.664;23.308;2023-08-17T11:50:09;120715.88;;;-142.62;35.73
6427;BME280;3246;42.664;23.308;2023-08-17T11:52:36;120715.88;;;-142.62;36.25
6427;BME280;3246;42.664;23.308;2023-08-17T11:55:04;120715.88;;;-142.62;35.80
6427;BME280;3246;42.664;23.308;2023-08-17T11:57:31;120715.88;;;-142.62;35.89
6427;BME280;3246;42.664;23.308;2023-08-17T11:59:59;120715.88;;;-142.62;35.44
6427;BME280;3246;42.664;23.308;2023-08-17T12:02:27;120715.88;;;-142.62;35.85
6427;BME280;3246;42.664;23.308;2023-08-17T12:04:55;120715.88;;;-142.62;35.94
6427;BME280;3246;42.664;23.308;2023-08-17T12:07:24;120715.88;;;-142.62;36.31
6427;BME280;3246;42.664;23.308;2023-08-17T12:09:51;120715.88;;;-142.62;36.45
6427;BME280;3246;42.664;23.308;2023-08-17T12:12:19;120715.88;;;-142.62;36.10
6427;BME280;3246;42.664;23.308;2023-08-17T12:14:48;120715.88;;;-142.62;35.86
6427;BME280;3246;42.664;23.308;2023-08-17T12:17:15;120715.88;;;-142.62;35.61
6427;BME280;3246;42.664;23.308;2023-08-17T12:19:43;120715.88;;;-142.62;35.31
6427;BME280;3246;42.664;23.308;2023-08-17T12:22:10;120715.88;;;-142.62;35.86
6427;BME280;3246;42.664;23.308;2023-08-17T12:24:40;120715.88;;;-142.62;35.39
6427;BME280;3246;42.664;23.308;2023-08-17T12:27:07;120715.88;;;-142.62;35.57
6427;BME280;3246;42.664;23.308;2023-08-17T12:29:34;120715.88;;;-142.62;35.86
6427;BME280;3246;42.664;23.308;2023-08-17T12:32:13;120715.88;;;-142.62;37.85
6427;BME280;3246;42.664;23.308;2023-08-17T12:34:40;120715.88;;;-142.62;39.17
6427;BME280;3246;42.664;23.308;2023-08-17T12:37:08;120715.88;;;-142.62;39.61
6427;BME280;3246;42.664;23.308;2023-08-17T12:39:35;120715.88;;;-142.62;39.12
6427;BME280;3246;42.664;23.308;2023-08-17T12:42:03;120715.88;;;-142.62;38.78
6427;BME280;3246;42.664;23.308;2023-08-17T12:44:30;120715.88;;;-142.62;39.61